sensor_id;sensor_type;location;lat;lon;timestamp;pressure;altitude;pressure_sealevel;temperature
42119;BMP280;27783;42.782;23.274;2023-07-28T00:02:11;95631.19;;;11.15
42119;BMP280;27783;42.782;23.274;2023-07-28T00:04:37;95631.03;;;11.56
42119;BMP280;27783;42.782;23.274;2023-07-28T00:07:04;95628.97;;;11.90
42119;BMP280;27783;42.782;23.274;2023-07-28T00:09:29;95630.50;;;11.88
42119;BMP280;27783;42.782;23.274;2023-07-28T00:12:13;95642.88;;;12.01
42119;BMP280;27783;42.782;23.274;2023-07-28T00:14:40;95643.97;;;12.07
42119;BMP280;27783;42.782;23.274;2023-07-28T00:17:06;95642.31;;;12.26
42119;BMP280;27783;42.782;23.274;2023-07-28T00:19:32;95628.31;;;12.29
42119;BMP280;27783;42.782;23.274;2023-07-28T00:21:57;95622.03;;;12.10
42119;BMP280;27783;42.782;23.274;2023-07-28T00:24:23;95621.75;;;12.01
42119;BMP280;27783;42.782;23.274;2023-07-28T00:26:49;95615.94;;;12.19
42119;BMP280;27783;42.782;23.274;2023-07-28T00:29:14;95616.66;;;12.23
42119;BMP280;27783;42.782;23.274;2023-07-28T00:31:41;95609.84;;;12.26
42119;BMP280;27783;42.782;23.274;2023-07-28T00:34:07;95612.97;;;12.14
42119;BMP280;27783;42.782;23.274;2023-07-28T00:36:33;95623.84;;;12.23
42119;BMP280;27783;42.782;23.274;2023-07-28T00:38:59;95620.47;;;12.19
42119;BMP280;27783;42.782;23.274;2023-07-28T00:41:24;95626.53;;;12.16
42119;BMP280;27783;42.782;23.274;2023-07-28T00:43:52;95622.78;;;11.50
42119;BMP280;27783;42.782;23.274;2023-07-28T00:46:18;95623.63;;;11.17
42119;BMP280;27783;42.782;23.274;2023-07-28T00:48:48;95621.63;;;11.55
42119;BMP280;27783;42.782;23.274;2023-07-28T00:51:35;95623.44;;;11.68
42119;BMP280;27783;42.782;23.274;2023-07-28T00:54:02;95624.69;;;11.47
42119;BMP280;27783;42.782;23.274;2023-07-28T00:56:30;95634.53;;;11.32
42119;BMP280;27783;42.782;23.274;2023-07-28T00:58:56;95633.72;;;11.49
42119;BMP280;27783;42.782;23.274;2023-07-28T01:01:23;95628.84;;;11.41
42119;BMP280;27783;42.782;23.274;2023-07-28T01:03:52;95616.38;;;11.51
42119;BMP280;27783;42.782;23.274;2023-07-28T01:06:37;95622.41;;;11.49
42119;BMP280;27783;42.782;23.274;2023-07-28T01:09:13;95619.34;;;11.60
42119;BMP280;27783;42.782;23.274;2023-07-28T01:14:20;95625.22;;;10.94
42119;BMP280;27783;42.782;23.274;2023-07-28T01:16:45;95626.72;;;10.92
42119;BMP280;27783;42.782;23.274;2023-07-28T01:19:12;95622.88;;;11.13
42119;BMP280;27783;42.782;23.274;2023-07-28T01:21:39;95619.47;;;11.19
42119;BMP280;27783;42.782;23.274;2023-07-28T01:24:57;95615.75;;;11.10
42119;BMP280;27783;42.782;23.274;2023-07-28T01:26:58;95616.91;;;11.09
42119;BMP280;27783;42.782;23.274;2023-07-28T01:29:24;95614.97;;;11.10
42119;BMP280;27783;42.782;23.274;2023-07-28T01:31:51;95616.84;;;11.16
42119;BMP280;27783;42.782;23.274;2023-07-28T01:34:20;95620.63;;;11.18
42119;BMP280;27783;42.782;23.274;2023-07-28T01:36:46;95608.91;;;11.26
42119;BMP280;27783;42.782;23.274;2023-07-28T01:39:14;95610.44;;;11.20
42119;BMP280;27783;42.782;23.274;2023-07-28T01:41:40;95616.50;;;11.04
42119;BMP280;27783;42.782;23.274;2023-07-28T01:44:10;95609.00;;;10.99
42119;BMP280;27783;42.782;23.274;2023-07-28T01:46:36;95618.38;;;11.07
42119;BMP280;27783;42.782;23.274;2023-07-28T01:49:02;95619.56;;;11.02
42119;BMP280;27783;42.782;23.274;2023-07-28T01:51:27;95623.66;;;11.07
42119;BMP280;27783;42.782;23.274;2023-07-28T01:53:52;95621.00;;;11.10
42119;BMP280;27783;42.782;23.274;2023-07-28T01:56:19;95621.78;;;11.04
42119;BMP280;27783;42.782;23.274;2023-07-28T01:58:44;95628.25;;;10.89
42119;BMP280;27783;42.782;23.274;2023-07-28T02:01:14;95624.06;;;11.05
42119;BMP280;27783;42.782;23.274;2023-07-28T02:03:40;95629.41;;;10.68
42119;BMP280;27783;42.782;23.274;2023-07-28T02:06:05;95626.41;;;10.59
42119;BMP280;27783;42.782;23.274;2023-07-28T02:08:31;95631.69;;;10.63
42119;BMP280;27783;42.782;23.274;2023-07-28T02:10:56;95624.84;;;10.99
42119;BMP280;27783;42.782;23.274;2023-07-28T02:13:23;95631.63;;;10.90
42119;BMP280;27783;42.782;23.274;2023-07-28T02:15:50;95629.34;;;10.95
42119;BMP280;27783;42.782;23.274;2023-07-28T02:18:15;95624.88;;;10.79
42119;BMP280;27783;42.782;23.274;2023-07-28T02:20:40;95632.81;;;10.62
42119;BMP280;27783;42.782;23.274;2023-07-28T02:23:08;95630.94;;;10.38
42119;BMP280;27783;42.782;23.274;2023-07-28T02:25:33;95633.22;;;10.47
42119;BMP280;27783;42.782;23.274;2023-07-28T02:27:58;95636.56;;;10.54
42119;BMP280;27783;42.782;23.274;2023-07-28T02:30:24;95638.44;;;10.70
42119;BMP280;27783;42.782;23.274;2023-07-28T02:32:49;95641.06;;;10.81
42119;BMP280;27783;42.782;23.274;2023-07-28T02:35:15;95645.97;;;10.82
42119;BMP280;27783;42.782;23.274;2023-07-28T02:37:40;95637.63;;;10.94
42119;BMP280;27783;42.782;23.274;2023-07-28T02:40:06;95629.41;;;10.75
42119;BMP280;27783;42.782;23.274;2023-07-28T02:42:33;95640.34;;;10.43
42119;BMP280;27783;42.782;23.274;2023-07-28T02:45:02;95638.47;;;10.26
42119;BMP280;27783;42.782;23.274;2023-07-28T02:47:28;95632.44;;;10.49
42119;BMP280;27783;42.782;23.274;2023-07-28T02:49:54;95628.66;;;10.61
42119;BMP280;27783;42.782;23.274;2023-07-28T02:52:19;95629.41;;;10.68
42119;BMP280;27783;42.782;23.274;2023-07-28T02:54:45;95632.44;;;10.56
42119;BMP280;27783;42.782;23.274;2023-07-28T02:57:10;95639.94;;;10.61
42119;BMP280;27783;42.782;23.274;2023-07-28T02:59:36;95631.28;;;10.71
42119;BMP280;27783;42.782;23.274;2023-07-28T03:02:01;95638.84;;;10.55
42119;BMP280;27783;42.782;23.274;2023-07-28T03:04:28;95632.06;;;10.58
42119;BMP280;27783;42.782;23.274;2023-07-28T03:06:54;95639.94;;;10.65
42119;BMP280;27783;42.782;23.274;2023-07-28T03:09:19;95641.06;;;10.81
42119;BMP280;27783;42.782;23.274;2023-07-28T03:11:45;95639.19;;;10.78
42119;BMP280;27783;42.782;23.274;2023-07-28T03:14:13;95637.31;;;10.48
42119;BMP280;27783;42.782;23.274;2023-07-28T03:16:40;95649.00;;;10.19
42119;BMP280;27783;42.782;23.274;2023-07-28T03:19:05;95649.00;;;10.40
42119;BMP280;27783;42.782;23.274;2023-07-28T03:21:32;95652.00;;;10.55
42119;BMP280;27783;42.782;23.274;2023-07-28T03:23:58;95652.00;;;10.62
42119;BMP280;27783;42.782;23.274;2023-07-28T03:26:26;95651.25;;;10.68
42119;BMP280;27783;42.782;23.274;2023-07-28T03:28:52;95645.22;;;10.48
42119;BMP280;27783;42.782;23.274;2023-07-28T03:31:18;95645.22;;;10.48
42119;BMP280;27783;42.782;23.274;2023-07-28T03:33:43;95651.25;;;10.48
42119;BMP280;27783;42.782;23.274;2023-07-28T03:36:12;95656.53;;;10.45
42119;BMP280;27783;42.782;23.274;2023-07-28T03:38:38;95665.19;;;10.42
42119;BMP280;27783;42.782;23.274;2023-07-28T03:41:04;95672.69;;;10.13
42119;BMP280;27783;42.782;23.274;2023-07-28T03:43:32;95671.94;;;10.16
42119;BMP280;27783;42.782;23.274;2023-07-28T03:45:57;95677.97;;;10.13
42119;BMP280;27783;42.782;23.274;2023-07-28T03:48:23;95674.59;;;10.46
42119;BMP280;27783;42.782;23.274;2023-07-28T03:50:50;95672.72;;;10.47
42119;BMP280;27783;42.782;23.274;2023-07-28T03:53:16;95670.09;;;10.33
42119;BMP280;27783;42.782;23.274;2023-07-28T03:55:43;95679.47;;;10.14
42119;BMP280;27783;42.782;23.274;2023-07-28T03:58:09;95679.81;;;10.05
42119;BMP280;27783;42.782;23.274;2023-07-28T04:00:36;95673.81;;;10.08
42119;BMP280;27783;42.782;23.274;2023-07-28T04:03:01;95683.25;;;10.23
42119;BMP280;27783;42.782;23.274;2023-07-28T04:05:29;95674.22;;;10.31
42119;BMP280;27783;42.782;23.274;2023-07-28T04:07:56;95674.97;;;10.65
42119;BMP280;27783;42.782;23.274;2023-07-28T04:10:21;95674.19;;;10.88
42119;BMP280;27783;42.782;23.274;2023-07-28T04:12:47;95673.84;;;10.73
42119;BMP280;27783;42.782;23.274;2023-07-28T04:15:12;95679.13;;;10.73
42119;BMP280;27783;42.782;23.274;2023-07-28T04:17:38;95679.06;;;11.07
42119;BMP280;27783;42.782;23.274;2023-07-28T04:20:13;95675.72;;;10.89
42119;BMP280;27783;42.782;23.274;2023-07-28T04:22:39;95682.47;;;10.94
42119;BMP280;27783;42.782;23.274;2023-07-28T04:25:04;95670.00;;;11.08
42119;BMP280;27783;42.782;23.274;2023-07-28T04:27:31;95671.50;;;11.29
42119;BMP280;27783;42.782;23.274;2023-07-28T04:29:58;95678.28;;;11.13
42119;BMP280;27783;42.782;23.274;2023-07-28T04:32:23;95679.06;;;11.00
42119;BMP280;27783;42.782;23.274;2023-07-28T04:34:49;95673.00;;;11.13
42119;BMP280;27783;42.782;23.274;2023-07-28T04:37:15;95676.00;;;11.42
42119;BMP280;27783;42.782;23.274;2023-07-28T04:39:41;95674.28;;;11.79
42119;BMP280;27783;42.782;23.274;2023-07-28T04:42:06;95673.50;;;11.88
42119;BMP280;27783;42.782;23.274;2023-07-28T04:44:32;95681.28;;;12.12
42119;BMP280;27783;42.782;23.274;2023-07-28T04:46:57;95682.69;;;12.30
42119;BMP280;27783;42.782;23.274;2023-07-28T04:49:22;95685.31;;;12.33
42119;BMP280;27783;42.782;23.274;2023-07-28T04:51:48;95676.97;;;12.35
42119;BMP280;27783;42.782;23.274;2023-07-28T04:54:13;95680.97;;;12.63
42119;BMP280;27783;42.782;23.274;2023-07-28T04:56:38;95682.53;;;13.00
42119;BMP280;27783;42.782;23.274;2023-07-28T04:59:04;95675.25;;;13.43
42119;BMP280;27783;42.782;23.274;2023-07-28T05:01:33;95668.72;;;13.18
42119;BMP280;27783;42.782;23.274;2023-07-28T05:03:58;95678.63;;;13.11
42119;BMP280;27783;42.782;23.274;2023-07-28T05:06:24;95672.81;;;13.26
42119;BMP280;27783;42.782;23.274;2023-07-28T05:08:49;95668.34;;;13.52
42119;BMP280;27783;42.782;23.274;2023-07-28T05:11:14;95668.91;;;13.66
42119;BMP280;27783;42.782;23.274;2023-07-28T05:13:40;95667.50;;;13.59
42119;BMP280;27783;42.782;23.274;2023-07-28T05:16:05;95666.41;;;13.89
42119;BMP280;27783;42.782;23.274;2023-07-28T05:18:30;95675.88;;;14.16
42119;BMP280;27783;42.782;23.274;2023-07-28T05:20:56;95663.31;;;14.45
42119;BMP280;27783;42.782;23.274;2023-07-28T05:23:21;95666.16;;;15.24
42119;BMP280;27783;42.782;23.274;2023-07-28T05:25:47;95665.38;;;15.46
42119;BMP280;27783;42.782;23.274;2023-07-28T05:28:12;95671.63;;;15.36
42119;BMP280;27783;42.782;23.274;2023-07-28T05:30:37;95669.03;;;15.52
42119;BMP280;27783;42.782;23.274;2023-07-28T05:33:03;95661.06;;;16.09
42119;BMP280;27783;42.782;23.274;2023-07-28T05:35:28;95654.38;;;16.01
42119;BMP280;27783;42.782;23.274;2023-07-28T05:37:53;95656.88;;;16.58
42119;BMP280;27783;42.782;23.274;2023-07-28T05:40:19;95652.56;;;16.79
42119;BMP280;27783;42.782;23.274;2023-07-28T05:42:45;95649.91;;;16.64
42119;BMP280;27783;42.782;23.274;2023-07-28T05:45:12;95648.81;;;17.08
42119;BMP280;27783;42.782;23.274;2023-07-28T05:47:37;95646.59;;;17.34
42119;BMP280;27783;42.782;23.274;2023-07-28T05:50:03;95647.94;;;17.26
42119;BMP280;27783;42.782;23.274;2023-07-28T05:52:29;95646.59;;;17.34
42119;BMP280;27783;42.782;23.274;2023-07-28T05:54:54;95637.31;;;17.94
42119;BMP280;27783;42.782;23.274;2023-07-28T05:57:20;95635.31;;;18.22
42119;BMP280;27783;42.782;23.274;2023-07-28T05:59:45;95634.78;;;18.39
42119;BMP280;27783;42.782;23.274;2023-07-28T06:02:11;95641.63;;;18.52
42119;BMP280;27783;42.782;23.274;2023-07-28T06:04:37;95633.50;;;18.19
42119;BMP280;27783;42.782;23.274;2023-07-28T06:07:02;95623.34;;;18.51
42119;BMP280;27783;42.782;23.274;2023-07-28T06:09:28;95627.94;;;18.74
42119;BMP280;27783;42.782;23.274;2023-07-28T06:11:53;95623.16;;;19.15
42119;BMP280;27783;42.782;23.274;2023-07-28T06:14:18;95621.09;;;18.86
42119;BMP280;27783;42.782;23.274;2023-07-28T06:16:44;95619.38;;;19.24
42119;BMP280;27783;42.782;23.274;2023-07-28T06:19:09;95615.44;;;19.91
42119;BMP280;27783;42.782;23.274;2023-07-28T06:21:35;95620.19;;;19.87
42119;BMP280;27783;42.782;23.274;2023-07-28T06:24:02;95622.19;;;19.75
42119;BMP280;27783;42.782;23.274;2023-07-28T06:26:27;95622.34;;;19.26
42119;BMP280;27783;42.782;23.274;2023-07-28T06:28:53;95628.03;;;18.83
42119;BMP280;27783;42.782;23.274;2023-07-28T06:31:18;95625.81;;;18.82
42119;BMP280;27783;42.782;23.274;2023-07-28T06:33:43;95625.53;;;19.67
42119;BMP280;27783;42.782;23.274;2023-07-28T06:36:09;95617.59;;;20.35
42119;BMP280;27783;42.782;23.274;2023-07-28T06:38:34;95613.34;;;20.16
42119;BMP280;27783;42.782;23.274;2023-07-28T06:40:59;95614.97;;;20.43
42119;BMP280;27783;42.782;23.274;2023-07-28T06:43:25;95612.66;;;21.19
42119;BMP280;27783;42.782;23.274;2023-07-28T06:45:52;95605.53;;;21.33
42119;BMP280;27783;42.782;23.274;2023-07-28T06:48:18;95609.09;;;21.13
42119;BMP280;27783;42.782;23.274;2023-07-28T06:50:43;95615.94;;;20.67
42119;BMP280;27783;42.782;23.274;2023-07-28T06:53:09;95608.34;;;21.12
42119;BMP280;27783;42.782;23.274;2023-07-28T06:55:34;95606.56;;;20.62
42119;BMP280;27783;42.782;23.274;2023-07-28T06:58:00;95602.81;;;21.16
42119;BMP280;27783;42.782;23.274;2023-07-28T07:00:25;95605.81;;;21.79
42119;BMP280;27783;42.782;23.274;2023-07-28T07:02:51;95599.78;;;22.01
42119;BMP280;27783;42.782;23.274;2023-07-28T07:05:16;95604.50;;;22.23
42119;BMP280;27783;42.782;23.274;2023-07-28T07:07:42;95609.50;;;21.64
42119;BMP280;27783;42.782;23.274;2023-07-28T07:10:07;95601.94;;;22.69
42119;BMP280;27783;42.782;23.274;2023-07-28T07:12:33;95589.91;;;23.10
42119;BMP280;27783;42.782;23.274;2023-07-28T07:14:58;95594.78;;;23.21
42119;BMP280;27783;42.782;23.274;2023-07-28T07:17:26;95596.91;;;23.08
42119;BMP280;27783;42.782;23.274;2023-07-28T07:19:51;95600.72;;;21.63
42119;BMP280;27783;42.782;23.274;2023-07-28T07:22:16;95608.44;;;22.05
42119;BMP280;27783;42.782;23.274;2023-07-28T07:24:42;95596.34;;;23.50
42119;BMP280;27783;42.782;23.274;2023-07-28T07:27:07;95596.00;;;23.71
42119;BMP280;27783;42.782;23.274;2023-07-28T07:29:37;95599.53;;;23.62
42119;BMP280;27783;42.782;23.274;2023-07-28T07:32:03;95600.31;;;24.61
42119;BMP280;27783;42.782;23.274;2023-07-28T07:34:28;95597.63;;;25.14
42119;BMP280;27783;42.782;23.274;2023-07-28T07:36:53;95605.31;;;23.33
42119;BMP280;27783;42.782;23.274;2023-07-28T07:39:19;95602.22;;;23.25
42119;BMP280;27783;42.782;23.274;2023-07-28T07:41:44;95597.72;;;23.96
42119;BMP280;27783;42.782;23.274;2023-07-28T07:44:09;95605.16;;;24.01
42119;BMP280;27783;42.782;23.274;2023-07-28T07:46:35;95599.75;;;24.57
42119;BMP280;27783;42.782;23.274;2023-07-28T07:49:00;95600.88;;;24.09
42119;BMP280;27783;42.782;23.274;2023-07-28T07:51:26;95602.56;;;23.92
42119;BMP280;27783;42.782;23.274;2023-07-28T07:53:51;95600.22;;;24.89
42119;BMP280;27783;42.782;23.274;2023-07-28T07:56:17;95598.06;;;26.15
42119;BMP280;27783;42.782;23.274;2023-07-28T07:58:43;95588.91;;;25.05
42119;BMP280;27783;42.782;23.274;2023-07-28T08:01:08;95605.97;;;24.49
42119;BMP280;27783;42.782;23.274;2023-07-28T08:03:34;95588.44;;;25.06
42119;BMP280;27783;42.782;23.274;2023-07-28T08:06:01;95596.69;;;24.84
42119;BMP280;27783;42.782;23.274;2023-07-28T08:08:27;95587.69;;;25.64
42119;BMP280;27783;42.782;23.274;2023-07-28T08:10:52;95582.09;;;26.42
42119;BMP280;27783;42.782;23.274;2023-07-28T08:13:18;95581.13;;;25.71
42119;BMP280;27783;42.782;23.274;2023-07-28T08:15:44;95581.19;;;26.91
42119;BMP280;27783;42.782;23.274;2023-07-28T08:18:11;95585.34;;;25.13
42119;BMP280;27783;42.782;23.274;2023-07-28T08:20:36;95569.78;;;25.23
42119;BMP280;27783;42.782;23.274;2023-07-28T08:23:01;95576.41;;;26.10
42119;BMP280;27783;42.782;23.274;2023-07-28T08:25:27;95568.66;;;26.28
42119;BMP280;27783;42.782;23.274;2023-07-28T08:27:53;95563.63;;;27.17
42119;BMP280;27783;42.782;23.274;2023-07-28T08:30:18;95553.59;;;28.33
42119;BMP280;27783;42.782;23.274;2023-07-28T08:32:43;95553.63;;;28.70
42119;BMP280;27783;42.782;23.274;2023-07-28T08:35:09;95557.03;;;28.07
42119;BMP280;27783;42.782;23.274;2023-07-28T08:37:35;95562.41;;;27.80
42119;BMP280;27783;42.782;23.274;2023-07-28T08:40:01;95560.28;;;27.32
42119;BMP280;27783;42.782;23.274;2023-07-28T08:42:29;95556.00;;;27.83
42119;BMP280;27783;42.782;23.274;2023-07-28T08:44:54;95552.16;;;27.38
42119;BMP280;27783;42.782;23.274;2023-07-28T08:47:21;95555.06;;;28.71
42119;BMP280;27783;42.782;23.274;2023-07-28T08:49:46;95553.31;;;28.84
42119;BMP280;27783;42.782;23.274;2023-07-28T08:52:15;95547.16;;;28.09
42119;BMP280;27783;42.782;23.274;2023-07-28T08:54:41;95555.56;;;26.87
42119;BMP280;27783;42.782;23.274;2023-07-28T08:57:06;95553.59;;;27.33
42119;BMP280;27783;42.782;23.274;2023-07-28T08:59:35;95530.72;;;29.32
42119;BMP280;27783;42.782;23.274;2023-07-28T09:02:01;95521.66;;;29.69
42119;BMP280;27783;42.782;23.274;2023-07-28T09:04:29;95522.94;;;29.62
42119;BMP280;27783;42.782;23.274;2023-07-28T09:06:55;95516.25;;;29.03
42119;BMP280;27783;42.782;23.274;2023-07-28T09:09:22;95515.81;;;29.54
42119;BMP280;27783;42.782;23.274;2023-07-28T09:11:50;95514.13;;;28.80
42119;BMP280;27783;42.782;23.274;2023-07-28T09:14:18;95505.56;;;30.10
42119;BMP280;27783;42.782;23.274;2023-07-28T09:16:45;95496.78;;;29.54
42119;BMP280;27783;42.782;23.274;2023-07-28T09:19:11;95493.13;;;30.20
42119;BMP280;27783;42.782;23.274;2023-07-28T09:21:42;95496.16;;;28.29
42119;BMP280;27783;42.782;23.274;2023-07-28T09:24:11;95494.88;;;30.17
42119;BMP280;27783;42.782;23.274;2023-07-28T09:26:41;95490.97;;;28.58
42119;BMP280;27783;42.782;23.274;2023-07-28T09:29:17;95480.88;;;30.08
42119;BMP280;27783;42.782;23.274;2023-07-28T09:31:48;95465.19;;;30.19
42119;BMP280;27783;42.782;23.274;2023-07-28T09:34:26;95457.59;;;30.64
42119;BMP280;27783;42.782;23.274;2023-07-28T09:36:54;95464.50;;;30.65
42119;BMP280;27783;42.782;23.274;2023-07-28T09:39:20;95449.28;;;31.40
42119;BMP280;27783;42.782;23.274;2023-07-28T09:41:47;95456.47;;;30.78
42119;BMP280;27783;42.782;23.274;2023-07-28T09:44:14;95450.63;;;31.33
42119;BMP280;27783;42.782;23.274;2023-07-28T09:47:00;95451.88;;;28.93
42119;BMP280;27783;42.782;23.274;2023-07-28T09:49:35;95442.56;;;30.06
42119;BMP280;27783;42.782;23.274;2023-07-28T09:52:09;95443.63;;;30.73
42119;BMP280;27783;42.782;23.274;2023-07-28T09:54:42;95448.16;;;28.95
42119;BMP280;27783;42.782;23.274;2023-07-28T09:57:11;95439.53;;;30.15
42119;BMP280;27783;42.782;23.274;2023-07-28T09:59:39;95442.88;;;29.19
42119;BMP280;27783;42.782;23.274;2023-07-28T10:02:05;95436.69;;;28.68
42119;BMP280;27783;42.782;23.274;2023-07-28T10:04:31;95435.59;;;29.82
42119;BMP280;27783;42.782;23.274;2023-07-28T10:06:57;95433.34;;;30.14
42119;BMP280;27783;42.782;23.274;2023-07-28T10:09:27;95422.31;;;30.77
42119;BMP280;27783;42.782;23.274;2023-07-28T10:11:54;95439.28;;;30.13
42119;BMP280;27783;42.782;23.274;2023-07-28T10:14:30;95436.78;;;29.86
42119;BMP280;27783;42.782;23.274;2023-07-28T10:16:59;95421.16;;;32.11
42119;BMP280;27783;42.782;23.274;2023-07-28T10:19:25;95433.72;;;29.27
42119;BMP280;27783;42.782;23.274;2023-07-28T10:22:11;95416.63;;;30.75
42119;BMP280;27783;42.782;23.274;2023-07-28T10:24:53;95412.59;;;32.20
42119;BMP280;27783;42.782;23.274;2023-07-28T10:27:38;95404.84;;;31.45
42119;BMP280;27783;42.782;23.274;2023-07-28T10:30:14;95415.75;;;30.44
42119;BMP280;27783;42.782;23.274;2023-07-28T10:32:46;95392.41;;;31.49
42119;BMP280;27783;42.782;23.274;2023-07-28T10:37:43;95391.78;;;32.04
42119;BMP280;27783;42.782;23.274;2023-07-28T10:40:32;95400.47;;;30.41
42119;BMP280;27783;42.782;23.274;2023-07-28T10:43:02;95397.56;;;30.98
42119;BMP280;27783;42.782;23.274;2023-07-28T10:45:35;95401.34;;;30.49
42119;BMP280;27783;42.782;23.274;2023-07-28T10:48:00;95380.13;;;31.43
42119;BMP280;27783;42.782;23.274;2023-07-28T10:50:30;95376.41;;;32.57
42119;BMP280;27783;42.782;23.274;2023-07-28T10:52:56;95375.41;;;31.43
42119;BMP280;27783;42.782;23.274;2023-07-28T10:55:24;95369.09;;;30.58
42119;BMP280;27783;42.782;23.274;2023-07-28T10:57:51;95363.19;;;32.48
42119;BMP280;27783;42.782;23.274;2023-07-28T11:00:19;95350.88;;;32.93
42119;BMP280;27783;42.782;23.274;2023-07-28T11:02:51;95354.31;;;31.92
42119;BMP280;27783;42.782;23.274;2023-07-28T11:05:28;95352.47;;;32.63
42119;BMP280;27783;42.782;23.274;2023-07-28T11:07:57;95360.47;;;32.48
42119;BMP280;27783;42.782;23.274;2023-07-28T11:10:25;95360.09;;;32.01
42119;BMP280;27783;42.782;23.274;2023-07-28T11:12:53;95359.56;;;30.46
42119;BMP280;27783;42.782;23.274;2023-07-28T11:15:19;95358.28;;;30.71
42119;BMP280;27783;42.782;23.274;2023-07-28T11:17:47;95343.53;;;32.12
42119;BMP280;27783;42.782;23.274;2023-07-28T11:22:52;95336.72;;;32.81
42119;BMP280;27783;42.782;23.274;2023-07-28T11:25:18;95340.34;;;31.96
42119;BMP280;27783;42.782;23.274;2023-07-28T11:27:45;95330.97;;;32.47
42119;BMP280;27783;42.782;23.274;2023-07-28T11:30:11;95331.41;;;30.62
42119;BMP280;27783;42.782;23.274;2023-07-28T11:32:38;95317.31;;;32.34
42119;BMP280;27783;42.782;23.274;2023-07-28T11:35:08;95312.63;;;33.58
42119;BMP280;27783;42.782;23.274;2023-07-28T11:37:40;95311.91;;;34.51
42119;BMP280;27783;42.782;23.274;2023-07-28T11:40:16;95311.88;;;32.34
42119;BMP280;27783;42.782;23.274;2023-07-28T11:42:50;95306.13;;;32.96
42119;BMP280;27783;42.782;23.274;2023-07-28T11:45:19;95305.25;;;33.00
42119;BMP280;27783;42.782;23.274;2023-07-28T11:48:07;95308.06;;;32.25
42119;BMP280;27783;42.782;23.274;2023-07-28T11:50:38;95298.16;;;33.17
42119;BMP280;27783;42.782;23.274;2023-07-28T11:53:04;95297.06;;;32.43
42119;BMP280;27783;42.782;23.274;2023-07-28T11:55:36;95301.63;;;33.18
42119;BMP280;27783;42.782;23.274;2023-07-28T11:58:02;95305.84;;;31.98
42119;BMP280;27783;42.782;23.274;2023-07-28T12:00:34;95303.47;;;32.45
42119;BMP280;27783;42.782;23.274;2023-07-28T12:03:07;95296.91;;;32.73
42119;BMP280;27783;42.782;23.274;2023-07-28T12:05:37;95301.66;;;32.85
42119;BMP280;27783;42.782;23.274;2023-07-28T12:08:04;95283.81;;;33.04
42119;BMP280;27783;42.782;23.274;2023-07-28T12:10:30;95282.53;;;34.25
42119;BMP280;27783;42.782;23.274;2023-07-28T12:12:57;95269.84;;;33.08
42119;BMP280;27783;42.782;23.274;2023-07-28T12:15:31;95260.13;;;33.79
42119;BMP280;27783;42.782;23.274;2023-07-28T12:18:10;95265.91;;;34.50
42119;BMP280;27783;42.782;23.274;2023-07-28T12:20:48;95262.53;;;34.71
42119;BMP280;27783;42.782;23.274;2023-07-28T12:23:18;95258.03;;;34.54
42119;BMP280;27783;42.782;23.274;2023-07-28T12:25:44;95247.72;;;35.31
42119;BMP280;27783;42.782;23.274;2023-07-28T12:28:11;95255.38;;;33.20
42119;BMP280;27783;42.782;23.274;2023-07-28T12:30:37;95258.47;;;32.71
42119;BMP280;27783;42.782;23.274;2023-07-28T12:33:04;95256.22;;;32.12
42119;BMP280;27783;42.782;23.274;2023-07-28T12:35:32;95241.63;;;33.72
42119;BMP280;27783;42.782;23.274;2023-07-28T12:38:02;95233.06;;;34.65
42119;BMP280;27783;42.782;23.274;2023-07-28T12:40:33;95240.91;;;33.52
42119;BMP280;27783;42.782;23.274;2023-07-28T12:43:01;95225.91;;;35.03
42119;BMP280;27783;42.782;23.274;2023-07-28T12:45:27;95222.44;;;35.10
42119;BMP280;27783;42.782;23.274;2023-07-28T12:47:53;95228.94;;;33.55
42119;BMP280;27783;42.782;23.274;2023-07-28T12:50:19;95230.16;;;33.94
42119;BMP280;27783;42.782;23.274;2023-07-28T12:52:46;95221.09;;;33.59
42119;BMP280;27783;42.782;23.274;2023-07-28T12:55:11;95223.16;;;33.85
42119;BMP280;27783;42.782;23.274;2023-07-28T12:57:37;95213.00;;;33.93
42119;BMP280;27783;42.782;23.274;2023-07-28T13:00:03;95227.44;;;32.49
42119;BMP280;27783;42.782;23.274;2023-07-28T13:02:44;95216.63;;;32.76
42119;BMP280;27783;42.782;23.274;2023-07-28T13:05:12;95210.78;;;33.65
42119;BMP280;27783;42.782;23.274;2023-07-28T13:07:39;95208.66;;;33.50
42119;BMP280;27783;42.782;23.274;2023-07-28T13:10:07;95196.31;;;33.17
42119;BMP280;27783;42.782;23.274;2023-07-28T13:12:34;95188.28;;;33.32
42119;BMP280;27783;42.782;23.274;2023-07-28T13:14:59;95192.13;;;33.36
42119;BMP280;27783;42.782;23.274;2023-07-28T13:17:24;95194.28;;;32.78
42119;BMP280;27783;42.782;23.274;2023-07-28T13:19:50;95202.69;;;32.34
42119;BMP280;27783;42.782;23.274;2023-07-28T13:22:15;95188.00;;;32.82
42119;BMP280;27783;42.782;23.274;2023-07-28T13:24:41;95184.53;;;33.22
42119;BMP280;27783;42.782;23.274;2023-07-28T13:27:07;95182.00;;;32.71
42119;BMP280;27783;42.782;23.274;2023-07-28T13:29:32;95188.09;;;33.57
42119;BMP280;27783;42.782;23.274;2023-07-28T13:31:58;95180.25;;;33.53
42119;BMP280;27783;42.782;23.274;2023-07-28T13:34:27;95174.78;;;32.94
42119;BMP280;27783;42.782;23.274;2023-07-28T13:36:54;95175.00;;;34.17
42119;BMP280;27783;42.782;23.274;2023-07-28T13:39:20;95178.03;;;34.06
42119;BMP280;27783;42.782;23.274;2023-07-28T13:41:46;95179.44;;;33.46
42119;BMP280;27783;42.782;23.274;2023-07-28T13:44:11;95174.88;;;33.21
42119;BMP280;27783;42.782;23.274;2023-07-28T13:46:37;95169.69;;;34.12
42119;BMP280;27783;42.782;23.274;2023-07-28T13:49:02;95180.88;;;33.39
42119;BMP280;27783;42.782;23.274;2023-07-28T13:51:28;95169.63;;;33.97
42119;BMP280;27783;42.782;23.274;2023-07-28T13:53:54;95166.41;;;34.13
42119;BMP280;27783;42.782;23.274;2023-07-28T13:56:20;95167.94;;;32.80
42119;BMP280;27783;42.782;23.274;2023-07-28T13:58:45;95176.09;;;32.47
42119;BMP280;27783;42.782;23.274;2023-07-28T14:01:11;95172.47;;;32.97
42119;BMP280;27783;42.782;23.274;2023-07-28T14:03:36;95174.25;;;33.55
42119;BMP280;27783;42.782;23.274;2023-07-28T14:06:02;95167.16;;;33.12